sensor_id;sensor_type;location;lat;lon;timestamp;temperature;humidity
10702;DHT22;5402;50.004;8.246;2023-07-16T00:00:20;19.30;99.90
10702;DHT22;5402;50.004;8.246;2023-07-16T00:02:49;19.20;99.90
10702;DHT22;5402;50.004;8.246;2023-07-16T00:05:16;19.40;99.90
10702;DHT22;5402;50.004;8.246;2023-07-16T00:07:44;19.30;99.90
10702;DHT22;5402;50.004;8.246;2023-07-16T00:10:11;19.10;99.90
10702;DHT22;5402;50.004;8.246;2023-07-16T00:12:38;19.10;99.90
10702;DHT22;5402;50.004;8.246;2023-07-16T00:15:05;19.10;99.90
10702;DHT22;5402;50.004;8.246;2023-07-16T00:17:33;19.00;99.90
10702;DHT22;5402;50.004;8.246;2023-07-16T00:20:00;19.10;99.90
10702;DHT22;5402;50.004;8.246;2023-07-16T00:22:26;19.00;99.90
10702;DHT22;5402;50.004;8.246;2023-07-16T00:24:54;18.90;99.90
10702;DHT22;5402;50.004;8.246;2023-07-16T00:27:21;18.80;99.90
10702;DHT22;5402;50.004;8.246;2023-07-16T00:29:48;18.90;99.90
10702;DHT22;5402;50.004;8.246;2023-07-16T00:32:15;18.80;99.90
10702;DHT22;5402;50.004;8.246;2023-07-16T00:34:41;18.80;99.90
10702;DHT22;5402;50.004;8.246;2023-07-16T00:37:08;18.80;99.90
10702;DHT22;5402;50.004;8.246;2023-07-16T00:39:35;18.80;99.90
10702;DHT22;5402;50.004;8.246;2023-07-16T00:42:03;18.80;99.90
10702;DHT22;5402;50.004;8.246;2023-07-16T00:44:30;18.80;99.90
10702;DHT22;5402;50.004;8.246;2023-07-16T00:46:57;18.60;99.90
10702;DHT22;5402;50.004;8.246;2023-07-16T00:49:24;18.70;99.90
10702;DHT22;5402;50.004;8.246;2023-07-16T00:51:52;18.70;99.90
10702;DHT22;5402;50.004;8.246;2023-07-16T00:54:19;18.70;99.90
10702;DHT22;5402;50.004;8.246;2023-07-16T00:56:46;18.60;99.90
10702;DHT22;5402;50.004;8.246;2023-07-16T00:59:14;18.60;99.90
10702;DHT22;5402;50.004;8.246;2023-07-16T01:01:41;18.50;99.90
10702;DHT22;5402;50.004;8.246;2023-07-16T01:04:08;18.50;99.90
10702;DHT22;5402;50.004;8.246;2023-07-16T01:06:37;18.50;99.90
10702;DHT22;5402;50.004;8.246;2023-07-16T01:09:07;18.50;99.90
10702;DHT22;5402;50.004;8.246;2023-07-16T01:11:35;18.40;99.90
10702;DHT22;5402;50.004;8.246;2023-07-16T01:14:03;18.40;99.90
10702;DHT22;5402;50.004;8.246;2023-07-16T01:16:31;18.50;99.90
10702;DHT22;5402;50.004;8.246;2023-07-16T01:18:58;18.30;99.90
10702;DHT22;5402;50.004;8.246;2023-07-16T01:21:32;18.40;99.90
10702;DHT22;5402;50.004;8.246;2023-07-16T01:27:16;18.30;99.90
10702;DHT22;5402;50.004;8.246;2023-07-16T01:29:46;18.30;99.90
10702;DHT22;5402;50.004;8.246;2023-07-16T01:32:15;18.30;99.90
10702;DHT22;5402;50.004;8.246;2023-07-16T01:34:46;18.20;99.90
10702;DHT22;5402;50.004;8.246;2023-07-16T01:37:13;18.20;99.90
10702;DHT22;5402;50.004;8.246;2023-07-16T01:39:40;18.40;99.90
10702;DHT22;5402;50.004;8.246;2023-07-16T01:42:07;18.30;99.90
10702;DHT22;5402;50.004;8.246;2023-07-16T01:44:34;18.20;99.90
10702;DHT22;5402;50.004;8.246;2023-07-16T01:47:09;18.10;99.90
10702;DHT22;5402;50.004;8.246;2023-07-16T01:49:36;18.20;99.90
10702;DHT22;5402;50.004;8.246;2023-07-16T01:52:06;18.20;99.90
10702;DHT22;5402;50.004;8.246;2023-07-16T01:54:33;18.20;99.90
10702;DHT22;5402;50.004;8.246;2023-07-16T01:57:01;18.20;99.90
10702;DHT22;5402;50.004;8.246;2023-07-16T01:59:28;18.30;99.90
10702;DHT22;5402;50.004;8.246;2023-07-16T02:01:55;18.20;99.90
10702;DHT22;5402;50.004;8.246;2023-07-16T02:04:23;18.10;99.90
10702;DHT22;5402;50.004;8.246;2023-07-16T02:06:50;18.20;99.90
10702;DHT22;5402;50.004;8.246;2023-07-16T02:09:17;18.20;99.90
10702;DHT22;5402;50.004;8.246;2023-07-16T02:11:44;18.10;99.90
10702;DHT22;5402;50.004;8.246;2023-07-16T02:14:10;18.10;99.90
10702;DHT22;5402;50.004;8.246;2023-07-16T02:16:38;18.00;99.90
10702;DHT22;5402;50.004;8.246;2023-07-16T02:19:05;17.90;99.90
10702;DHT22;5402;50.004;8.246;2023-07-16T02:21:33;18.00;99.90
10702;DHT22;5402;50.004;8.246;2023-07-16T02:24:00;18.00;99.90
10702;DHT22;5402;50.004;8.246;2023-07-16T02:26:27;17.90;99.90
10702;DHT22;5402;50.004;8.246;2023-07-16T02:28:53;18.00;99.90
10702;DHT22;5402;50.004;8.246;2023-07-16T02:31:20;17.90;99.90
10702;DHT22;5402;50.004;8.246;2023-07-16T02:33:47;18.00;99.90
10702;DHT22;5402;50.004;8.246;2023-07-16T02:36:13;17.70;99.90
10702;DHT22;5402;50.004;8.246;2023-07-16T02:38:42;17.90;99.90
10702;DHT22;5402;50.004;8.246;2023-07-16T02:41:08;17.80;99.90
10702;DHT22;5402;50.004;8.246;2023-07-16T02:43:35;17.80;99.90
10702;DHT22;5402;50.004;8.246;2023-07-16T02:46:02;17.80;99.90
10702;DHT22;5402;50.004;8.246;2023-07-16T02:48:29;17.80;99.90
10702;DHT22;5402;50.004;8.246;2023-07-16T02:50:55;17.70;99.90
10702;DHT22;5402;50.004;8.246;2023-07-16T02:53:22;17.70;99.90
10702;DHT22;5402;50.004;8.246;2023-07-16T02:55:50;17.70;99.90
10702;DHT22;5402;50.004;8.246;2023-07-16T02:58:17;17.70;99.90
10702;DHT22;5402;50.004;8.246;2023-07-16T03:00:44;17.60;99.90
10702;DHT22;5402;50.004;8.246;2023-07-16T03:03:10;17.60;99.90
10702;DHT22;5402;50.004;8.246;2023-07-16T03:05:37;17.60;99.90
10702;DHT22;5402;50.004;8.246;2023-07-16T03:08:04;17.60;99.90
10702;DHT22;5402;50.004;8.246;2023-07-16T03:10:31;17.50;99.90
10702;DHT22;5402;50.004;8.246;2023-07-16T03:12:59;17.60;99.90
10702;DHT22;5402;50.004;8.246;2023-07-16T03:15:26;17.50;99.90
10702;DHT22;5402;50.004;8.246;2023-07-16T03:17:53;17.50;99.90
10702;DHT22;5402;50.004;8.246;2023-07-16T03:20:19;17.50;99.90
10702;DHT22;5402;50.004;8.246;2023-07-16T03:22:46;17.50;99.90
10702;DHT22;5402;50.004;8.246;2023-07-16T03:25:13;17.40;99.90
10702;DHT22;5402;50.004;8.246;2023-07-16T03:27:40;17.40;99.90
10702;DHT22;5402;50.004;8.246;2023-07-16T03:30:09;17.40;99.90
10702;DHT22;5402;50.004;8.246;2023-07-16T03:32:36;17.40;99.90
10702;DHT22;5402;50.004;8.246;2023-07-16T03:35:05;17.40;99.90
10702;DHT22;5402;50.004;8.246;2023-07-16T03:37:32;17.40;99.90
10702;DHT22;5402;50.004;8.246;2023-07-16T03:40:12;17.30;99.90
10702;DHT22;5402;50.004;8.246;2023-07-16T03:42:40;17.60;99.90
10702;DHT22;5402;50.004;8.246;2023-07-16T03:45:09;17.40;99.90
10702;DHT22;5402;50.004;8.246;2023-07-16T03:47:36;17.40;99.90
10702;DHT22;5402;50.004;8.246;2023-07-16T03:50:04;17.50;99.90
10702;DHT22;5402;50.004;8.246;2023-07-16T03:52:31;17.30;99.90
10702;DHT22;5402;50.004;8.246;2023-07-16T03:54:58;17.40;99.90
10702;DHT22;5402;50.004;8.246;2023-07-16T03:57:24;17.50;99.90
10702;DHT22;5402;50.004;8.246;2023-07-16T03:59:51;17.40;99.90
10702;DHT22;5402;50.004;8.246;2023-07-16T04:02:19;17.40;99.90
10702;DHT22;5402;50.004;8.246;2023-07-16T04:04:46;17.40;99.90
10702;DHT22;5402;50.004;8.246;2023-07-16T04:07:13;17.30;99.90
10702;DHT22;5402;50.004;8.246;2023-07-16T04:09:39;17.30;99.90
10702;DHT22;5402;50.004;8.246;2023-07-16T04:12:07;17.40;99.90
10702;DHT22;5402;50.004;8.246;2023-07-16T04:14:34;17.30;99.90
10702;DHT22;5402;50.004;8.246;2023-07-16T04:17:00;17.40;99.90
10702;DHT22;5402;50.004;8.246;2023-07-16T04:19:29;17.40;99.90
10702;DHT22;5402;50.004;8.246;2023-07-16T04:21:56;17.50;99.90
10702;DHT22;5402;50.004;8.246;2023-07-16T04:24:22;17.50;99.90
10702;DHT22;5402;50.004;8.246;2023-07-16T04:26:49;17.60;99.90
10702;DHT22;5402;50.004;8.246;2023-07-16T04:29:16;17.60;99.90
10702;DHT22;5402;50.004;8.246;2023-07-16T04:31:43;17.60;99.90
10702;DHT22;5402;50.004;8.246;2023-07-16T04:34:09;17.60;99.90
10702;DHT22;5402;50.004;8.246;2023-07-16T04:36:38;17.70;99.90
10702;DHT22;5402;50.004;8.246;2023-07-16T04:39:04;17.80;99.90
10702;DHT22;5402;50.004;8.246;2023-07-16T04:41:31;17.90;99.90
10702;DHT22;5402;50.004;8.246;2023-07-16T04:43:58;18.00;99.90
10702;DHT22;5402;50.004;8.246;2023-07-16T04:46:25;17.90;99.90
10702;DHT22;5402;50.004;8.246;2023-07-16T04:48:51;18.00;99.90
10702;DHT22;5402;50.004;8.246;2023-07-16T04:51:18;18.00;99.90
10702;DHT22;5402;50.004;8.246;2023-07-16T04:53:48;18.10;99.90
10702;DHT22;5402;50.004;8.246;2023-07-16T04:56:15;18.10;99.90
10702;DHT22;5402;50.004;8.246;2023-07-16T04:58:45;18.00;99.90
10702;DHT22;5402;50.004;8.246;2023-07-16T05:01:12;18.00;99.90
10702;DHT22;5402;50.004;8.246;2023-07-16T05:03:38;18.10;99.90
10702;DHT22;5402;50.004;8.246;2023-07-16T05:06:05;18.20;99.90
10702;DHT22;5402;50.004;8.246;2023-07-16T05:08:32;18.20;99.90
10702;DHT22;5402;50.004;8.246;2023-07-16T05:11:01;18.20;99.90
10702;DHT22;5402;50.004;8.246;2023-07-16T05:13:28;18.20;99.90
10702;DHT22;5402;50.004;8.246;2023-07-16T05:15:55;18.20;99.90
10702;DHT22;5402;50.004;8.246;2023-07-16T05:18:21;18.40;99.90
10702;DHT22;5402;50.004;8.246;2023-07-16T05:20:48;18.40;99.90
10702;DHT22;5402;50.004;8.246;2023-07-16T05:23:15;18.40;99.90
10702;DHT22;5402;50.004;8.246;2023-07-16T05:25:46;18.40;99.90
10702;DHT22;5402;50.004;8.246;2023-07-16T05:28:14;18.50;99.90
10702;DHT22;5402;50.004;8.246;2023-07-16T05:30:41;18.40;99.90
10702;DHT22;5402;50.004;8.246;2023-07-16T05:33:08;18.40;99.90
10702;DHT22;5402;50.004;8.246;2023-07-16T05:35:35;18.40;99.90
10702;DHT22;5402;50.004;8.246;2023-07-16T05:38:02;18.30;99.90
10702;DHT22;5402;50.004;8.246;2023-07-16T05:40:28;18.40;99.90
10702;DHT22;5402;50.004;8.246;2023-07-16T05:42:55;18.30;99.90
10702;DHT22;5402;50.004;8.246;2023-07-16T05:45:23;18.30;99.90
10702;DHT22;5402;50.004;8.246;2023-07-16T05:47:50;18.50;99.90
10702;DHT22;5402;50.004;8.246;2023-07-16T05:50:17;18.40;99.90
10702;DHT22;5402;50.004;8.246;2023-07-16T05:52:43;18.50;99.90
10702;DHT22;5402;50.004;8.246;2023-07-16T05:55:10;18.60;99.90
10702;DHT22;5402;50.004;8.246;2023-07-16T05:57:37;18.70;99.90
10702;DHT22;5402;50.004;8.246;2023-07-16T06:00:07;18.60;99.90
10702;DHT22;5402;50.004;8.246;2023-07-16T06:02:37;18.60;99.90
10702;DHT22;5402;50.004;8.246;2023-07-16T06:05:04;18.60;99.90
10702;DHT22;5402;50.004;8.246;2023-07-16T06:07:31;18.70;99.90
10702;DHT22;5402;50.004;8.246;2023-07-16T06:09:58;18.70;99.90
10702;DHT22;5402;50.004;8.246;2023-07-16T06:12:25;18.80;99.90
10702;DHT22;5402;50.004;8.246;2023-07-16T06:14:51;18.80;99.90
10702;DHT22;5402;50.004;8.246;2023-07-16T06:17:18;18.80;99.90
10702;DHT22;5402;50.004;8.246;2023-07-16T06:19:46;18.80;99.90
10702;DHT22;5402;50.004;8.246;2023-07-16T06:22:15;18.90;99.90
10702;DHT22;5402;50.004;8.246;2023-07-16T06:24:42;19.00;99.90
10702;DHT22;5402;50.004;8.246;2023-07-16T06:27:08;19.10;99.90
10702;DHT22;5402;50.004;8.246;2023-07-16T06:29:35;19.10;99.90
10702;DHT22;5402;50.004;8.246;2023-07-16T06:32:03;18.90;99.90
10702;DHT22;5402;50.004;8.246;2023-07-16T06:34:29;19.00;99.90
10702;DHT22;5402;50.004;8.246;2023-07-16T06:36:57;19.20;99.90
10702;DHT22;5402;50.004;8.246;2023-07-16T06:39:24;19.10;99.90
10702;DHT22;5402;50.004;8.246;2023-07-16T06:41:51;18.90;99.90
10702;DHT22;5402;50.004;8.246;2023-07-16T06:44:18;19.10;99.90
10702;DHT22;5402;50.004;8.246;2023-07-16T06:46:45;19.20;99.90
10702;DHT22;5402;50.004;8.246;2023-07-16T06:49:11;19.20;99.90
10702;DHT22;5402;50.004;8.246;2023-07-16T06:51:38;19.20;99.90
10702;DHT22;5402;50.004;8.246;2023-07-16T06:54:06;19.40;99.90
10702;DHT22;5402;50.004;8.246;2023-07-16T06:56:33;19.40;99.90
10702;DHT22;5402;50.004;8.246;2023-07-16T06:59:00;19.60;99.90
10702;DHT22;5402;50.004;8.246;2023-07-16T07:01:27;19.60;99.90
10702;DHT22;5402;50.004;8.246;2023-07-16T07:03:54;19.60;99.90
10702;DHT22;5402;50.004;8.246;2023-07-16T07:06:20;19.70;99.90
10702;DHT22;5402;50.004;8.246;2023-07-16T07:08:47;19.80;99.90
10702;DHT22;5402;50.004;8.246;2023-07-16T07:11:15;20.10;99.90
10702;DHT22;5402;50.004;8.246;2023-07-16T07:13:42;20.00;99.90
10702;DHT22;5402;50.004;8.246;2023-07-16T07:16:09;19.90;99.90
10702;DHT22;5402;50.004;8.246;2023-07-16T07:18:36;20.10;99.90
10702;DHT22;5402;50.004;8.246;2023-07-16T07:21:03;20.10;99.90
10702;DHT22;5402;50.004;8.246;2023-07-16T07:23:30;20.10;99.90
10702;DHT22;5402;50.004;8.246;2023-07-16T07:25:56;20.30;99.90
10702;DHT22;5402;50.004;8.246;2023-07-16T07:28:25;20.30;99.90
10702;DHT22;5402;50.004;8.246;2023-07-16T07:30:51;20.30;99.90
10702;DHT22;5402;50.004;8.246;2023-07-16T07:33:18;20.30;99.90
10702;DHT22;5402;50.004;8.246;2023-07-16T07:35:45;20.50;99.90
10702;DHT22;5402;50.004;8.246;2023-07-16T07:38:12;20.50;99.90
10702;DHT22;5402;50.004;8.246;2023-07-16T07:40:38;20.50;99.90
10702;DHT22;5402;50.004;8.246;2023-07-16T07:43:05;20.40;99.90
10702;DHT22;5402;50.004;8.246;2023-07-16T07:45:33;20.50;99.90
10702;DHT22;5402;50.004;8.246;2023-07-16T07:48:00;20.60;99.90
10702;DHT22;5402;50.004;8.246;2023-07-16T07:50:27;20.60;99.90
10702;DHT22;5402;50.004;8.246;2023-07-16T07:52:54;20.70;99.90
10702;DHT22;5402;50.004;8.246;2023-07-16T07:55:21;20.80;99.90
10702;DHT22;5402;50.004;8.246;2023-07-16T07:57:48;20.80;99.90
10702;DHT22;5402;50.004;8.246;2023-07-16T08:00:15;21.00;99.90
10702;DHT22;5402;50.004;8.246;2023-07-16T08:02:43;21.00;99.90
10702;DHT22;5402;50.004;8.246;2023-07-16T08:05:10;21.10;99.90
10702;DHT22;5402;50.004;8.246;2023-07-16T08:07:37;21.00;99.90
10702;DHT22;5402;50.004;8.246;2023-07-16T08:10:04;21.30;99.90
10702;DHT22;5402;50.004;8.246;2023-07-16T08:12:32;21.50;99.90
10702;DHT22;5402;50.004;8.246;2023-07-16T08:14:59;21.60;99.90
10702;DHT22;5402;50.004;8.246;2023-07-16T08:17:26;21.60;99.90
10702;DHT22;5402;50.004;8.246;2023-07-16T08:19:54;21.60;99.90
10702;DHT22;5402;50.004;8.246;2023-07-16T08:22:21;21.70;99.90
10702;DHT22;5402;50.004;8.246;2023-07-16T08:24:50;21.60;99.90
10702;DHT22;5402;50.004;8.246;2023-07-16T08:27:17;21.60;99.90
10702;DHT22;5402;50.004;8.246;2023-07-16T08:29:44;21.50;99.90
10702;DHT22;5402;50.004;8.246;2023-07-16T08:32:11;21.60;99.90
10702;DHT22;5402;50.004;8.246;2023-07-16T08:34:37;21.90;99.90
10702;DHT22;5402;50.004;8.246;2023-07-16T08:37:06;22.50;99.90
10702;DHT22;5402;50.004;8.246;2023-07-16T08:39:33;22.60;99.90
10702;DHT22;5402;50.004;8.246;2023-07-16T08:42:00;22.60;99.90
10702;DHT22;5402;50.004;8.246;2023-07-16T08:44:28;22.70;99.90
10702;DHT22;5402;50.004;8.246;2023-07-16T08:46:56;22.80;99.90
10702;DHT22;5402;50.004;8.246;2023-07-16T08:49:23;23.00;99.90
10702;DHT22;5402;50.004;8.246;2023-07-16T08:51:50;22.80;99.90
10702;DHT22;5402;50.004;8.246;2023-07-16T08:54:19;22.50;99.90
10702;DHT22;5402;50.004;8.246;2023-07-16T08:56:48;22.60;99.90
10702;DHT22;5402;50.004;8.246;2023-07-16T08:59:15;22.60;99.90
10702;DHT22;5402;50.004;8.246;2023-07-16T09:01:42;22.70;99.90
10702;DHT22;5402;50.004;8.246;2023-07-16T09:04:09;23.30;99.90
10702;DHT22;5402;50.004;8.246;2023-07-16T09:06:35;23.50;99.90
10702;DHT22;5402;50.004;8.246;2023-07-16T09:09:02;23.30;99.90
10702;DHT22;5402;50.004;8.246;2023-07-16T09:11:30;23.30;99.90
10702;DHT22;5402;50.004;8.246;2023-07-16T09:13:57;23.70;99.90
10702;DHT22;5402;50.004;8.246;2023-07-16T09:16:24;23.90;99.90
10702;DHT22;5402;50.004;8.246;2023-07-16T09:18:51;23.60;99.90
10702;DHT22;5402;50.004;8.246;2023-07-16T09:21:17;23.50;99.90
10702;DHT22;5402;50.004;8.246;2023-07-16T09:23:44;23.60;99.90
10702;DHT22;5402;50.004;8.246;2023-07-16T09:26:11;23.60;99.40
10702;DHT22;5402;50.004;8.246;2023-07-16T09:28:39;23.50;99.80
10702;DHT22;5402;50.004;8.246;2023-07-16T09:31:07;23.70;99.80
10702;DHT22;5402;50.004;8.246;2023-07-16T09:33:34;23.90;98.20
10702;DHT22;5402;50.004;8.246;2023-07-16T09:36:02;24.00;98.40
10702;DHT22;5402;50.004;8.246;2023-07-16T09:38:30;24.30;99.30
10702;DHT22;5402;50.004;8.246;2023-07-16T09:40:56;23.90;98.00
10702;DHT22;5402;50.004;8.246;2023-07-16T09:43:23;24.00;98.70
10702;DHT22;5402;50.004;8.246;2023-07-16T09:45:51;24.10;97.70
10702;DHT22;5402;50.004;8.246;2023-07-16T09:48:18;24.00;98.70
10702;DHT22;5402;50.004;8.246;2023-07-16T09:50:50;24.20;97.80
10702;DHT22;5402;50.004;8.246;2023-07-16T09:53:19;23.90;97.50
10702;DHT22;5402;50.004;8.246;2023-07-16T09:55:47;23.70;97.40
10702;DHT22;5402;50.004;8.246;2023-07-16T09:58:14;23.80;95.90
10702;DHT22;5402;50.004;8.246;2023-07-16T10:00:45;24.00;96.50
10702;DHT22;5402;50.004;8.246;2023-07-16T10:03:14;24.20;96.20
10702;DHT22;5402;50.004;8.246;2023-07-16T10:05:42;24.20;96.50
10702;DHT22;5402;50.004;8.246;2023-07-16T10:08:16;24.40;96.50
10702;DHT22;5402;50.004;8.246;2023-07-16T10:10:44;24.00;95.90
10702;DHT22;5402;50.004;8.246;2023-07-16T10:13:12;23.90;95.80
10702;DHT22;5402;50.004;8.246;2023-07-16T10:15:50;23.80;96.80
10702;DHT22;5402;50.004;8.246;2023-07-16T10:18:24;24.00;96.30
10702;DHT22;5402;50.004;8.246;2023-07-16T10:20:53;24.20;96.10
10702;DHT22;5402;50.004;8.246;2023-07-16T10:23:19;24.20;94.10
10702;DHT22;5402;50.004;8.246;2023-07-16T10:25:58;24.00;94.20
10702;DHT22;5402;50.004;8.246;2023-07-16T10:28:25;24.30;96.20
10702;DHT22;5402;50.004;8.246;2023-07-16T10:30:52;24.20;95.80
10702;DHT22;5402;50.004;8.246;2023-07-16T10:33:19;24.70;96.70
10702;DHT22;5402;50.004;8.246;2023-07-16T10:35:47;24.80;94.30
10702;DHT22;5402;50.004;8.246;2023-07-16T10:38:14;24.50;93.70
10702;DHT22;5402;50.004;8.246;2023-07-16T10:40:41;24.00;93.50
10702;DHT22;5402;50.004;8.246;2023-07-16T10:43:09;24.00;94.30
10702;DHT22;5402;50.004;8.246;2023-07-16T10:45:36;24.30;94.10
10702;DHT22;5402;50.004;8.246;2023-07-16T10:48:03;24.60;95.30
10702;DHT22;5402;50.004;8.246;2023-07-16T10:50:32;24.70;93.20
10702;DHT22;5402;50.004;8.246;2023-07-16T10:53:01;24.60;92.00
10702;DHT22;5402;50.004;8.246;2023-07-16T10:55:29;24.60;93.40
10702;DHT22;5402;50.004;8.246;2023-07-16T10:57:58;24.90;93.00
10702;DHT22;5402;50.004;8.246;2023-07-16T11:00:25;24.70;93.30
10702;DHT22;5402;50.004;8.246;2023-07-16T11:02:52;24.90;93.30
10702;DHT22;5402;50.004;8.246;2023-07-16T11:05:19;24.50;93.00
10702;DHT22;5402;50.004;8.246;2023-07-16T11:07:47;24.50;93.80
10702;DHT22;5402;50.004;8.246;2023-07-16T11:10:17;24.80;93.80
10702;DHT22;5402;50.004;8.246;2023-07-16T11:12:44;24.90;94.40
10702;DHT22;5402;50.004;8.246;2023-07-16T11:15:11;25.00;93.80
10702;DHT22;5402;50.004;8.246;2023-07-16T11:17:38;25.00;90.90
10702;DHT22;5402;50.004;8.246;2023-07-16T11:20:07;25.20;92.60
10702;DHT22;5402;50.004;8.246;2023-07-16T11:22:37;25.60;91.20
10702;DHT22;5402;50.004;8.246;2023-07-16T11:25:11;25.50;91.10
10702;DHT22;5402;50.004;8.246;2023-07-16T11:27:41;25.20;92.60
10702;DHT22;5402;50.004;8.246;2023-07-16T11:30:08;25.40;91.40
10702;DHT22;5402;50.004;8.246;2023-07-16T11:32:36;25.60;91.70
10702;DHT22;5402;50.004;8.246;2023-07-16T11:35:05;25.70;92.30
10702;DHT22;5402;50.004;8.246;2023-07-16T11:37:33;25.80;90.60
10702;DHT22;5402;50.004;8.246;2023-07-16T11:40:02;26.00;91.30
10702;DHT22;5402;50.004;8.246;2023-07-16T11:42:31;26.00;90.40
10702;DHT22;5402;50.004;8.246;2023-07-16T11:45:00;26.10;89.40
10702;DHT22;5402;50.004;8.246;2023-07-16T11:47:27;26.20;88.60
10702;DHT22;5402;50.004;8.246;2023-07-16T11:49:54;26.20;90.00
10702;DHT22;5402;50.004;8.246;2023-07-16T11:52:23;26.20;90.80
10702;DHT22;5402;50.004;8.246;2023-07-16T11:54:51;26.20;87.10
10702;DHT22;5402;50.004;8.246;2023-07-16T11:57:18;26.30;90.00
10702;DHT22;5402;50.004;8.246;2023-07-16T11:59:45;26.40;88.10
10702;DHT22;5402;50.004;8.246;2023-07-16T12:02:14;26.60;90.30
10702;DHT22;5402;50.004;8.246;2023-07-16T12:04:41;26.30;88.90
10702;DHT22;5402;50.004;8.246;2023-07-16T12:07:08;26.00;87.80
10702;DHT22;5402;50.004;8.246;2023-07-16T12:09:34;26.20;88.90
10702;DHT22;5402;50.004;8.246;2023-07-16T12:12:01;26.40;89.50
10702;DHT22;5402;50.004;8.246;2023-07-16T12:14:28;26.30;88.60
10702;DHT22;5402;50.004;8.246;2023-07-16T12:16:55;26.10;87.70
10702;DHT22;5402;50.004;8.246;2023-07-16T12:19:24;25.90;90.30
10702;DHT22;5402;50.004;8.246;2023-07-16T12:21:51;25.80;89.70
10702;DHT22;5402;50.004;8.246;2023-07-16T12:24:18;25.60;88.50
10702;DHT22;5402;50.004;8.246;2023-07-16T12:26:45;25.80;90.20
10702;DHT22;5402;50.004;8.246;2023-07-16T12:29:12;25.60;89.00
10702;DHT22;5402;50.004;8.246;2023-07-16T12:31:38;25.50;86.40
10702;DHT22;5402;50.004;8.246;2023-07-16T12:34:05;25.50;87.00
10702;DHT22;5402;50.004;8.246;2023-07-16T12:36:35;25.70;87.30
10702;DHT22;5402;50.004;8.246;2023-07-16T12:39:02;25.80;85.90
10702;DHT22;5402;50.004;8.246;2023-07-16T12:41:29;26.10;87.80
10702;DHT22;5402;50.004;8.246;2023-07-16T12:43:55;26.20;85.00
10702;DHT22;5402;50.004;8.246;2023-07-16T12:46:22;26.30;85.30
10702;DHT22;5402;50.004;8.246;2023-07-16T12:48:49;26.30;81.20
10702;DHT22;5402;50.004;8.246;2023-07-16T12:51:16;26.10;83.40
10702;DHT22;5402;50.004;8.246;2023-07-16T12:53:44;25.90;84.90
10702;DHT22;5402;50.004;8.246;2023-07-16T12:56:11;25.90;86.80
10702;DHT22;5402;50.004;8.246;2023-07-16T12:58:38;26.10;87.10
10702;DHT22;5402;50.004;8.246;2023-07-16T13:01:04;26.00;82.70
10702;DHT22;5402;50.004;8.246;2023-07-16T13:03:31;26.10;86.10
10702;DHT22;5402;50.004;8.246;2023-07-16T13:05:58;25.90;82.80
10702;DHT22;5402;50.004;8.246;2023-07-16T13:08:24;26.10;82.10
10702;DHT22;5402;50.004;8.246;2023-07-16T13:10:53;25.90;84.80
10702;DHT22;5402;50.004;8.246;2023-07-16T13:13:19;26.00;86.00
10702;DHT22;5402;50.004;8.246;2023-07-16T13:15:46;25.90;86.10
10702;DHT22;5402;50.004;8.246;2023-07-16T13:18:13;25.80;85.30
10702;DHT22;5402;50.004;8.246;2023-07-16T13:20:40;25.70;87.50
10702;DHT22;5402;50.004;8.246;2023-07-16T13:23:07;25.70;86.00
10702;DHT22;5402;50.004;8.246;2023-07-16T13:25:34;25.80;88.40
10702;DHT22;5402;50.004;8.246;2023-07-16T13:28:05;25.90;88.40
10702;DHT22;5402;50.004;8.246;2023-07-16T13:30:32;26.10;90.40
10702;DHT22;5402;50.004;8.246;2023-07-16T13:32:59;26.20;85.90
10702;DHT22;5402;50.004;8.246;2023-07-16T13:35:27;26.40;83.40
10702;DHT22;5402;50.004;8.246;2023-07-16T13:37:54;26.40;82.00
10702;DHT22;5402;50.004;8.246;2023-07-16T13:40:20;26.00;83.10
10702;DHT22;5402;50.004;8.246;2023-07-16T13:42:47;25.90;83.70
10702;DHT22;5402;50.004;8.246;2023-07-16T13:45:15;26.00;82.80
10702;DHT22;5402;50.004;8.246;2023-07-16T13:47:42;26.20;85.10
10702;DHT22;5402;50.004;8.246;2023-07-16T13:50:09;26.40;81.50
10702;DHT22;5402;50.004;8.246;2023-07-16T13:52:36;26.50;82.70
10702;DHT22;5402;50.004;8.246;2023-07-16T13:55:03;26.40;82.90
10702;DHT22;5402;50.004;8.246;2023-07-16T13:57:30;26.10;82.00
10702;DHT22;5402;50.004;8.246;2023-07-16T13:59:57;26.10;82.40
10702;DHT22;5402;50.004;8.246;2023-07-16T14:02:27;26.20;83.30
10702;DHT22;5402;50.004;8.246;2023-07-16T14:04:53;26.10;82.30
10702;DHT22;5402;50.004;8.246;2023-07-16T14:07:20;26.30;85.60
10702;DHT22;5402;50.004;8.246;2023-07-16T14:09:47;26.10;79.60
10702;DHT22;5402;50.004;8.246;2023-07-16T14:12:14;26.00;82.50
10702;DHT22;5402;50.004;8.246;2023-07-16T14:14:40;25.70;86.20
10702;DHT22;5402;50.004;8.246;2023-07-16T14:17:07;25.60;83.90
10702;DHT22;5402;50.004;8.246;2023-07-16T14:19:35;26.00;82.60
10702;DHT22;5402;50.004;8.246;2023-07-16T14:22:03;26.30;86.00
10702;DHT22;5402;50.004;8.246;2023-07-16T14:24:29;26.50;83.60
10702;DHT22;5402;50.004;8.246;2023-07-16T14:26:58;26.50;80.90
10702;DHT22;5402;50.004;8.246;2023-07-16T14:29:27;26.60;81.00
10702;DHT22;5402;50.004;8.246;2023-07-16T14:31:55;26.40;81.70
10702;DHT22;5402;50.004;8.246;2023-07-16T14:34:21;26.60;82.20
10702;DHT22;5402;50.004;8.246;2023-07-16T14:36:49;26.50;82.50
10702;DHT22;5402;50.004;8.246;2023-07-16T14:39:16;26.10;85.00
10702;DHT22;5402;50.004;8.246;2023-07-16T14:41:43;25.80;79.70
10702;DHT22;5402;50.004;8.246;2023-07-16T14:44:10;25.90;80.80
10702;DHT22;5402;50.004;8.246;2023-07-16T14:46:37;25.80;79.50
10702;DHT22;5402;50.004;8.246;2023-07-16T14:49:04;26.10;82.90
10702;DHT22;5402;50.004;8.246;2023-07-16T14:51:31;26.20;78.40
10702;DHT22;5402;50.004;8.246;2023-07-16T14:54:06;26.20;88.00
10702;DHT22;5402;50.004;8.246;2023-07-16T14:56:33;26.10;81.40
10702;DHT22;5402;50.004;8.246;2023-07-16T14:59:00;26.20;78.70
10702;DHT22;5402;50.004;8.246;2023-07-16T15:01:27;25.80;80.10
10702;DHT22;5402;50.004;8.246;2023-07-16T15:03:54;26.00;83.80
10702;DHT22;5402;50.004;8.246;2023-07-16T15:06:21;26.10;83.60
10702;DHT22;5402;50.004;8.246;2023-07-16T15:08:48;26.00;82.40
10702;DHT22;5402;50.004;8.246;2023-07-16T15:11:17;26.10;85.40
10702;DHT22;5402;50.004;8.246;2023-07-16T15:13:44;25.90;87.20
10702;DHT22;5402;50.004;8.246;2023-07-16T15:16:11;25.90;87.60
10702;DHT22;5402;50.004;8.246;2023-07-16T15:18:39;26.00;83.60
10702;DHT22;5402;50.004;8.246;2023-07-16T15:21:06;26.00;81.70
10702;DHT22;5402;50.004;8.246;2023-07-16T15:23:33;26.10;78.70
10702;DHT22;5402;50.004;8.246;2023-07-16T15:26:01;26.10;79.60
10702;DHT22;5402;50.004;8.246;2023-07-16T15:28:31;25.90;82.80
10702;DHT22;5402;50.004;8.246;2023-07-16T15:30:59;26.10;84.70
10702;DHT22;5402;50.004;8.246;2023-07-16T15:33:26;26.00;82.20
10702;DHT22;5402;50.004;8.246;2023-07-16T15:35:55;26.20;80.80
10702;DHT22;5402;50.004;8.246;2023-07-16T15:38:25;26.30;84.20
10702;DHT22;5402;50.004;8.246;2023-07-16T15:40:52;26.00;87.30
10702;DHT22;5402;50.004;8.246;2023-07-16T15:43:19;25.60;84.30
10702;DHT22;5402;50.004;8.246;2023-07-16T15:45:47;25.70;84.30
10702;DHT22;5402;50.004;8.246;2023-07-16T15:48:14;25.70;85.50